Time;durP1;ratioP1;P1;durP2;ratioP2;P2;SDS_P1;SDS_P2;PMS_P1;PMS_P2;Temp;Humidity;BMP_temperature;BMP_pressure;BME280_temperature;BME280_humidity;BME280_pressure;Samples;Min_cycle;Max_cycle;Signal;HPM_P1;HPM_P2
2022/10/16 00:00:44;;;;;;;12.30;4.97;;;15.90;1.00;;;;;;5027171;28;20243;-64
2022/10/16 00:03:11;;;;;;;7.43;4.40;;;15.90;1.00;;;;;;5028632;28;20489;-64
2022/10/16 00:05:41;;;;;;;7.63;4.43;;;15.90;1.00;;;;;;5028188;28;20410;-63
2022/10/16 00:08:08;;;;;;;10.07;4.80;;;15.90;1.00;;;;;;5028625;28;20951;-65
2022/10/16 00:10:34;;;;;;;7.07;4.87;;;15.90;1.00;;;;;;5027210;28;20834;-63
2022/10/16 00:13:00;;;;;;;4.00;3.30;;;15.90;1.00;;;;;;5028152;28;20421;-65
2022/10/16 00:15:26;;;;;;;11.83;4.30;;;15.80;1.00;;;;;;5027781;28;20993;-64
2022/10/16 00:17:51;;;;;;;5.97;4.27;;;15.90;1.00;;;;;;5028168;28;20233;-65
2022/10/16 00:20:17;;;;;;;11.00;4.43;;;15.90;1.00;;;;;;5027779;28;20246;-65
2022/10/16 00:22:43;;;;;;;8.17;3.87;;;15.80;1.00;;;;;;5027231;28;20631;-65
2022/10/16 00:25:08;;;;;;;10.57;4.67;;;15.80;1.00;;;;;;5027953;28;20238;-65
2022/10/16 00:27:34;;;;;;;11.63;5.50;;;15.80;1.00;;;;;;5028099;28;20195;-65
2022/10/16 00:30:00;;;;;;;14.90;4.33;;;15.70;1.00;;;;;;5027583;28;20646;-65
2022/10/16 00:32:26;;;;;;;16.07;4.40;;;15.70;1.00;;;;;;5026814;28;20251;-65
2022/10/16 00:34:54;;;;;;;8.87;5.23;;;15.70;1.00;;;;;;5027869;28;20687;-65
2022/10/16 00:37:20;;;;;;;11.97;5.07;;;15.70;1.00;;;;;;5027708;28;20221;-65
2022/10/16 00:39:46;;;;;;;17.37;6.03;;;15.70;1.00;;;;;;5030908;28;20438;-65
2022/10/16 00:42:20;;;;;;;6.87;3.90;;;15.70;1.00;;;;;;5031029;28;20858;-65
2022/10/16 00:44:53;;;;;;;7.77;3.77;;;15.60;1.00;;;;;;5031464;28;20167;-65
2022/10/16 00:47:40;;;;;;;12.53;4.37;;;15.50;1.00;;;;;;5031389;28;20985;-65
2022/10/16 00:50:30;;;;;;;6.30;4.60;;;15.50;1.00;;;;;;5031229;28;20442;-65
2022/10/16 00:52:58;;;;;;;13.87;6.40;;;15.60;1.00;;;;;;5031874;28;20863;-65
2022/10/16 00:55:24;;;;;;;10.20;4.70;;;15.50;1.00;;;;;;5031471;28;20417;-66
2022/10/16 00:57:51;;;;;;;7.23;4.77;;;15.60;1.00;;;;;;5032237;28;20795;-64
2022/10/16 01:00:22;;;;;;;8.37;5.00;;;15.60;1.00;;;;;;5033620;28;20438;-64
2022/10/16 01:02:58;;;;;;;5.40;4.60;;;15.60;1.00;;;;;;5031885;28;20463;-64
2022/10/16 01:05:39;;;;;;;8.53;4.77;;;15.60;1.00;;;;;;5026892;28;20493;-65
2022/10/16 01:08:23;;;;;;;8.20;4.30;;;15.50;1.00;;;;;;5030818;28;20910;-63
2022/10/16 01:11:07;;;;;;;20.63;5.20;;;15.50;1.00;;;;;;5030114;28;20438;-64
2022/10/16 01:13:42;;;;;;;7.57;4.67;;;15.50;1.00;;;;;;5031478;28;20424;-65
2022/10/16 01:16:15;;;;;;;7.87;4.53;;;15.60;1.00;;;;;;5030654;28;20418;-65
2022/10/16 01:18:44;;;;;;;5.53;3.80;;;15.60;1.00;;;;;;5031483;28;20598;-65
2022/10/16 01:21:26;;;;;;;17.30;5.10;;;15.50;1.00;;;;;;5030862;28;20477;-64
2022/10/16 01:24:24;;;;;;;11.33;4.67;;;15.50;1.00;;;;;;5031144;28;20422;-65
2022/10/16 01:27:09;;;;;;;7.63;4.30;;;15.50;1.00;;;;;;5030756;28;20994;-65
2022/10/16 01:29:55;;;;;;;7.00;4.27;;;15.50;1.00;;;;;;5031291;28;20450;-66
2022/10/16 01:32:40;;;;;;;7.00;5.00;;;15.50;1.00;;;;;;5029752;28;20422;-65
2022/10/16 01:35:27;;;;;;;8.17;4.67;;;15.50;1.00;;;;;;5030405;28;20957;-66
2022/10/16 01:38:03;;;;;;;5.00;4.50;;;15.50;1.00;;;;;;5031215;28;20479;-66
2022/10/16 01:40:30;;;;;;;4.20;3.80;;;15.50;1.00;;;;;;5030462;28;20449;-65
2022/10/16 01:43:04;;;;;;;5.50;4.47;;;15.60;1.00;;;;;;5031173;28;20410;-66
2022/10/16 01:45:32;;;;;;;9.53;5.00;;;15.50;1.00;;;;;;5031339;28;20429;-65
2022/10/16 01:48:04;;;;;;;5.10;4.57;;;15.50;1.00;;;;;;5031326;28;20780;-64
2022/10/16 01:50:33;;;;;;;5.80;5.07;;;15.50;1.00;;;;;;5029519;28;20457;-64
2022/10/16 01:53:01;;;;;;;8.73;4.00;;;15.40;1.00;;;;;;5030420;28;20486;-65
2022/10/16 01:55:35;;;;;;;5.20;4.23;;;15.40;1.00;;;;;;5030182;28;20422;-64
2022/10/16 01:58:04;;;;;;;6.57;5.13;;;15.50;1.00;;;;;;5030733;28;20418;-65
2022/10/16 02:00:30;;;;;;;6.03;5.00;;;15.50;1.00;;;;;;5028744;28;20457;-66
2022/10/16 02:03:00;;;;;;;6.90;4.93;;;15.40;1.00;;;;;;5030073;28;20406;-66
2022/10/16 02:05:31;;;;;;;7.70;4.70;;;15.40;1.00;;;;;;5030037;28;20417;-65
2022/10/16 02:07:56;;;;;;;6.70;4.50;;;15.40;1.00;;;;;;5029943;28;20417;-65
2022/10/16 02:10:24;;;;;;;11.53;5.00;;;15.40;1.00;;;;;;5029440;28;20438;-66
2022/10/16 02:12:57;;;;;;;9.13;4.50;;;15.40;1.00;;;;;;5029729;28;20203;-64
2022/10/16 02:15:23;;;;;;;6.70;4.50;;;15.40;1.00;;;;;;5030168;28;20930;-66
2022/10/16 02:17:48;;;;;;;7.43;4.20;;;15.30;1.00;;;;;;5029939;28;20601;-65
2022/10/16 02:20:14;;;;;;;26.50;5.77;;;15.30;1.00;;;;;;5029501;28;20585;-65
2022/10/16 02:22:46;;;;;;;12.20;5.63;;;15.40;1.00;;;;;;5029659;28;20246;-65
2022/10/16 02:25:34;;;;;;;6.83;5.10;;;15.40;1.00;;;;;;5029731;28;20206;-65
2022/10/16 02:28:17;;;;;;;9.47;4.87;;;15.40;1.00;;;;;;5029767;28;20845;-65
2022/10/16 02:30:58;;;;;;;6.30;3.90;;;15.40;1.00;;;;;;5028433;28;20426;-65
2022/10/16 02:33:26;;;;;;;5.70;4.90;;;15.40;1.00;;;;;;5025699;28;20444;-65
2022/10/16 02:35:53;;;;;;;4.60;4.20;;;15.40;1.00;;;;;;5029358;28;20414;-65
2022/10/16 02:38:21;;;;;;;10.43;4.60;;;15.40;1.00;;;;;;5030258;28;20449;-65
2022/10/16 02:40:46;;;;;;;8.13;4.57;;;15.40;1.00;;;;;;5028521;28;20469;-65
2022/10/16 02:43:13;;;;;;;5.30;3.90;;;15.50;1.00;;;;;;5023756;28;20418;-66
2022/10/16 02:45:39;;;;;;;6.70;5.10;;;15.40;1.00;;;;;;5029194;28;20172;-65
2022/10/16 02:48:05;;;;;;;6.33;3.90;;;15.30;1.00;;;;;;5029675;28;20437;-66
2022/10/16 02:50:31;;;;;;;10.07;4.73;;;15.20;1.00;;;;;;5028582;28;20437;-65
2022/10/16 02:52:56;;;;;;;7.53;4.80;;;15.20;1.00;;;;;;5029098;28;20430;-66
2022/10/16 02:55:22;;;;;;;8.60;4.70;;;15.10;1.00;;;;;;5028897;28;20269;-66
2022/10/16 02:57:47;;;;;;;5.53;4.57;;;15.00;1.00;;;;;;5029463;28;20180;-65
2022/10/16 03:00:15;;;;;;;9.60;3.93;;;15.10;1.00;;;;;;5029026;28;20211;-66
2022/10/16 03:02:41;;;;;;;6.67;4.90;;;15.10;1.00;;;;;;5028423;28;20560;-66
2022/10/16 03:05:07;;;;;;;6.73;3.90;;;15.10;1.00;;;;;;5029237;28;20414;-66
2022/10/16 03:07:33;;;;;;;5.10;4.47;;;15.20;1.00;;;;;;5029476;28;20637;-64
2022/10/16 03:10:00;;;;;;;4.37;3.97;;;15.20;1.00;;;;;;5028998;28;20488;-66
2022/10/16 03:12:27;;;;;;;5.57;5.07;;;15.20;1.00;;;;;;5028179;28;20186;-66
2022/10/16 03:14:52;;;;;;;6.63;3.50;;;15.20;1.00;;;;;;5028746;28;20468;-65
2022/10/16 03:17:18;;;;;;;8.00;5.17;;;15.20;1.00;;;;;;5028595;28;20426;-65
2022/10/16 03:19:44;;;;;;;4.50;3.90;;;15.10;1.00;;;;;;5028678;28;20205;-66
2022/10/16 03:22:10;;;;;;;5.43;4.80;;;15.00;1.00;;;;;;5027800;28;20199;-66
2022/10/16 03:24:36;;;;;;;4.70;4.17;;;15.00;1.00;;;;;;5028592;28;20899;-66
2022/10/16 03:27:02;;;;;;;10.40;4.10;;;15.10;1.00;;;;;;5028625;28;20182;-66
2022/10/16 03:29:29;;;;;;;7.80;4.50;;;15.10;1.00;;;;;;5028795;28;20703;-65
2022/10/16 03:31:55;;;;;;;6.70;4.40;;;15.10;1.00;;;;;;5027101;28;20192;-65
2022/10/16 03:34:21;;;;;;;5.33;4.60;;;15.00;1.00;;;;;;5028797;28;20497;-65
2022/10/16 03:36:47;;;;;;;7.70;4.60;;;15.00;1.00;;;;;;5028589;28;20517;-65
2022/10/16 03:39:12;;;;;;;6.00;4.47;;;14.90;1.00;;;;;;5028683;28;20278;-64
2022/10/16 03:41:38;;;;;;;7.67;4.17;;;14.90;1.00;;;;;;5027430;28;20195;-65
2022/10/16 03:44:04;;;;;;;4.63;3.90;;;14.90;1.00;;;;;;5028553;28;20578;-64
2022/10/16 03:46:29;;;;;;;7.30;4.03;;;14.90;1.00;;;;;;5028092;28;20175;-65
2022/10/16 03:48:55;;;;;;;7.60;4.00;;;14.90;1.00;;;;;;5028415;28;20207;-65
2022/10/16 03:51:21;;;;;;;4.87;3.63;;;14.90;1.00;;;;;;5027651;28;20179;-64
2022/10/16 03:53:46;;;;;;;5.23;3.60;;;14.90;1.00;;;;;;5028591;28;20186;-65
2022/10/16 03:56:12;;;;;;;4.63;3.90;;;15.00;1.00;;;;;;5021984;28;20210;-64
2022/10/16 03:58:38;;;;;;;10.93;4.03;;;15.00;1.00;;;;;;5028345;28;20663;-64
2022/10/16 04:01:04;;;;;;;4.60;4.13;;;14.90;1.00;;;;;;5026739;28;20210;-65
2022/10/16 04:03:29;;;;;;;4.17;3.30;;;14.90;1.00;;;;;;5028589;28;20172;-64
2022/10/16 04:05:55;;;;;;;6.50;3.90;;;14.90;1.00;;;;;;5028357;28;20164;-65
2022/10/16 04:08:21;;;;;;;5.00;4.23;;;14.90;1.00;;;;;;5028664;28;20200;-65
2022/10/16 04:10:47;;;;;;;19.10;5.40;;;14.90;1.00;;;;;;5027206;28;20159;-64
2022/10/16 04:13:13;;;;;;;6.50;4.40;;;15.00;1.00;;;;;;5029671;28;20194;-64
2022/10/16 04:15:38;;;;;;;6.43;4.60;;;15.10;1.00;;;;;;5031502;28;20576;-65
2022/10/16 04:18:05;;;;;;;8.10;4.00;;;15.10;1.00;;;;;;5031017;28;20421;-64
2022/10/16 04:20:31;;;;;;;3.90;3.30;;;15.10;1.00;;;;;;5031265;28;20299;-65
2022/10/16 04:22:57;;;;;;;6.20;3.63;;;15.10;1.00;;;;;;5032000;28;20622;-67
2022/10/16 04:25:22;;;;;;;17.63;4.73;;;15.10;1.00;;;;;;5032246;28;20172;-66
2022/10/16 04:27:48;;;;;;;6.50;3.77;;;15.10;1.00;;;;;;5032364;28;20175;-66
2022/10/16 04:30:14;;;;;;;4.90;3.17;;;15.10;1.00;;;;;;5031588;28;20207;-66
2022/10/16 04:32:40;;;;;;;9.50;4.53;;;15.10;1.00;;;;;;5031790;28;20536;-65
2022/10/16 04:35:07;;;;;;;9.90;3.77;;;15.10;1.00;;;;;;5032234;28;20505;-66
2022/10/16 04:37:33;;;;;;;7.20;4.00;;;15.10;1.00;;;;;;5029056;28;20436;-66
2022/10/16 04:39:58;;;;;;;5.27;4.33;;;15.10;1.00;;;;;;5031155;28;21264;-66
2022/10/16 04:42:24;;;;;;;19.90;4.43;;;15.10;1.00;;;;;;5030769;28;20287;-66
2022/10/16 04:44:50;;;;;;;36.40;6.40;;;15.00;1.00;;;;;;5031492;28;20310;-66
2022/10/16 04:47:15;;;;;;;4.80;3.17;;;15.00;1.00;;;;;;5031235;28;20220;-66
2022/10/16 04:49:41;;;;;;;10.50;3.90;;;15.00;1.00;;;;;;5031569;28;20194;-65
2022/10/16 04:52:08;;;;;;;5.70;3.40;;;15.00;1.00;;;;;;5031043;28;20590;-66
2022/10/16 04:54:34;;;;;;;8.30;3.50;;;15.00;1.00;;;;;;5031286;28;20194;-66
2022/10/16 04:57:00;;;;;;;7.50;3.60;;;15.00;1.00;;;;;;5031161;28;20938;-66
2022/10/16 04:59:25;;;;;;;8.23;4.50;;;15.10;1.00;;;;;;5031385;28;20522;-64
2022/10/16 05:01:51;;;;;;;17.73;5.30;;;15.00;1.00;;;;;;5030686;28;20227;-65
2022/10/16 05:04:17;;;;;;;24.53;6.83;;;15.00;1.00;;;;;;5032427;28;20183;-66
2022/10/16 05:06:43;;;;;;;10.70;5.40;;;15.00;1.00;;;;;;5031841;28;20176;-65
2022/10/16 05:09:09;;;;;;;16.00;5.20;;;15.00;1.00;;;;;;5031901;28;20199;-66
2022/10/16 05:11:35;;;;;;;27.50;6.03;;;15.00;1.00;;;;;;5030330;28;20422;-65
2022/10/16 05:14:01;;;;;;;21.00;4.60;;;14.90;1.00;;;;;;5031587;28;20188;-66
2022/10/16 05:16:27;;;;;;;23.13;5.80;;;14.90;1.00;;;;;;5030930;28;20984;-65
2022/10/16 05:18:53;;;;;;;6.40;5.10;;;14.90;1.00;;;;;;5030829;28;21108;-66
2022/10/16 05:21:20;;;;;;;10.27;4.70;;;14.90;1.00;;;;;;5029994;28;20477;-66
2022/10/16 05:23:45;;;;;;;12.43;4.50;;;14.70;1.00;;;;;;5030643;28;20425;-67
2022/10/16 05:26:11;;;;;;;5.30;4.40;;;14.50;1.00;;;;;;5029744;28;20421;-66
2022/10/16 05:28:37;;;;;;;9.80;5.13;;;14.40;1.00;;;;;;5030873;28;20280;-66
2022/10/16 05:31:07;;;;;;;7.60;4.70;;;14.30;1.00;;;;;;5029278;28;20183;-65
2022/10/16 05:33:33;;;;;;;18.57;6.10;;;14.30;1.00;;;;;;5030698;28;20584;-66
2022/10/16 05:36:03;;;;;;;4.97;4.50;;;14.50;1.00;;;;;;5030162;28;20544;-66
2022/10/16 05:38:29;;;;;;;9.47;4.00;;;14.60;1.00;;;;;;5030741;28;20934;-65
2022/10/16 05:40:56;;;;;;;12.00;4.27;;;14.70;1.00;;;;;;5029528;28;20466;-65
2022/10/16 05:43:22;;;;;;;43.70;6.47;;;14.70;1.00;;;;;;5030705;28;20534;-65
2022/10/16 05:45:55;;;;;;;24.20;5.87;;;14.80;1.00;;;;;;5029785;28;20414;-65
2022/10/16 05:48:22;;;;;;;39.10;7.50;;;14.90;1.00;;;;;;5025212;28;20418;-65
2022/10/16 05:50:47;;;;;;;7.50;4.30;;;15.00;1.00;;;;;;5029416;28;20454;-65
2022/10/16 05:53:13;;;;;;;22.70;5.47;;;15.00;1.00;;;;;;5030651;28;20453;-65
2022/10/16 05:55:39;;;;;;;8.23;5.17;;;15.10;1.00;;;;;;5030587;28;20234;-65
2022/10/16 05:58:04;;;;;;;5.43;3.60;;;15.30;1.00;;;;;;5030528;28;20646;-66
2022/10/16 06:00:30;;;;;;;17.93;4.30;;;15.40;1.00;;;;;;5029567;28;20314;-65
2022/10/16 06:02:56;;;;;;;82.30;10.17;;;15.30;1.00;;;;;;5030725;28;20179;-65
2022/10/16 06:05:21;;;;;;;22.17;5.60;;;15.30;1.00;;;;;;5030684;28;20628;-65
2022/10/16 06:07:47;;;;;;;47.30;7.30;;;15.20;1.00;;;;;;5030678;28;20176;-65
2022/10/16 06:10:12;;;;;;;61.63;8.63;;;15.30;1.00;;;;;;5030336;28;20820;-66
2022/10/16 06:12:38;;;;;;;18.33;4.93;;;16.70;1.00;;;;;;5029928;28;20202;-65
2022/10/16 06:15:04;;;;;;;50.77;8.00;;;17.80;1.00;;;;;;5030357;28;20175;-65
2022/10/16 06:17:30;;;;;;;23.63;5.10;;;18.20;1.00;;;;;;5027354;28;20652;-66
2022/10/16 06:19:56;;;;;;;31.03;5.50;;;17.60;99.90;;;;;;5027871;28;20482;-65
2022/10/16 06:22:21;;;;;;;26.70;5.27;;;16.80;1.00;;;;;;5028856;28;20226;-66
2022/10/16 06:24:47;;;;;;;17.93;4.80;;;16.40;99.90;;;;;;5029652;28;20176;-65
2022/10/16 06:27:13;;;;;;;22.50;6.27;;;16.00;1.00;;;;;;5029523;28;20184;-65
2022/10/16 06:29:38;;;;;;;16.60;5.60;;;15.80;1.00;;;;;;5029155;28;20208;-65
2022/10/16 06:32:04;;;;;;;5.17;4.77;;;15.70;1.00;;;;;;5028634;28;20547;-65
2022/10/16 06:34:30;;;;;;;6.97;4.40;;;15.60;1.00;;;;;;5029860;28;20186;-65
2022/10/16 06:36:55;;;;;;;8.30;4.17;;;15.60;1.00;;;;;;5029309;28;20195;-65
2022/10/16 06:39:21;;;;;;;12.07;5.93;;;15.50;1.00;;;;;;5029888;28;20206;-66
2022/10/16 06:41:47;;;;;;;66.43;10.97;;;15.50;1.00;;;;;;5028500;28;20210;-66
2022/10/16 06:44:12;;;;;;;49.23;7.70;;;15.60;1.00;;;;;;5029546;28;20270;-66
2022/10/16 06:46:38;;;;;;;22.37;6.70;;;15.60;1.00;;;;;;5029169;28;20182;-66
2022/10/16 06:49:04;;;;;;;14.53;4.70;;;15.70;1.00;;;;;;5029055;28;20259;-66
2022/10/16 06:51:31;;;;;;;44.50;8.47;;;15.80;1.00;;;;;;5028962;28;20176;-66
2022/10/16 06:53:57;;;;;;;15.57;5.80;;;15.90;1.00;;;;;;5029686;28;20585;-64
2022/10/16 06:56:25;;;;;;;21.63;5.87;;;16.00;1.00;;;;;;5029022;28;20488;-66
2022/10/16 06:58:53;;;;;;;13.93;5.30;;;16.00;1.00;;;;;;5029132;28;20198;-64
2022/10/16 07:01:20;;;;;;;9.80;5.87;;;16.00;1.00;;;;;;5027877;28;20538;-65
2022/10/16 07:03:46;;;;;;;11.73;5.30;;;16.00;1.00;;;;;;5028978;28;20513;-66
2022/10/16 07:06:14;;;;;;;9.10;5.40;;;16.00;1.00;;;;;;5028679;28;20429;-64
2022/10/16 07:08:42;;;;;;;21.20;6.40;;;15.90;1.00;;;;;;5027090;28;20537;-65
2022/10/16 07:11:10;;;;;;;12.53;4.83;;;15.90;1.00;;;;;;5035499;28;20418;-64
2022/10/16 07:13:37;;;;;;;24.07;6.03;;;15.70;1.00;;;;;;5029167;28;20482;-67
2022/10/16 07:16:09;;;;;;;40.97;8.60;;;15.70;1.00;;;;;;5030178;28;20496;-66
2022/10/16 07:18:36;;;;;;;16.43;6.40;;;15.60;1.00;;;;;;5033460;28;20442;-67
2022/10/16 07:21:10;;;;;;;31.20;7.10;;;15.60;1.00;;;;;;5027805;28;20450;-65
2022/10/16 07:23:37;;;;;;;31.37;7.27;;;15.60;1.00;;;;;;5028980;28;20518;-66
2022/10/16 07:26:03;;;;;;;23.73;6.07;;;15.80;1.00;;;;;;5034131;28;20506;-65
2022/10/16 07:28:29;;;;;;;28.97;7.60;;;15.80;1.00;;;;;;5026629;28;20446;-63
2022/10/16 07:30:54;;;;;;;26.90;6.83;;;15.70;1.00;;;;;;5027066;28;20461;-66
2022/10/16 07:33:21;;;;;;;29.73;5.73;;;15.80;1.00;;;;;;5038035;28;20178;-66
2022/10/16 07:35:54;;;;;;;64.40;10.43;;;16.10;1.00;;;;;;5031193;28;20633;-67
2022/10/16 07:38:20;;;;;;;60.03;8.10;;;16.30;1.00;;;;;;5032653;28;20487;-66
2022/10/16 07:40:46;;;;;;;16.00;6.23;;;16.40;1.00;;;;;;5041365;28;21523;-67
2022/10/16 07:43:12;;;;;;;11.83;5.40;;;16.50;1.00;;;;;;5028733;28;20442;-66
2022/10/16 07:45:46;;;;;;;13.73;4.90;;;16.60;1.00;;;;;;5032785;28;20606;-66
2022/10/16 07:48:11;;;;;;;26.37;5.60;;;16.60;1.00;;;;;;5031510;28;20891;-66
2022/10/16 07:50:37;;;;;;;9.77;6.23;;;16.60;1.00;;;;;;5031427;28;20443;-65
2022/10/16 07:53:03;;;;;;;25.07;5.77;;;16.60;1.00;;;;;;5027786;28;20714;-66
2022/10/16 07:55:29;;;;;;;12.30;4.80;;;16.60;1.00;;;;;;5030985;28;20410;-66
2022/10/16 07:57:55;;;;;;;27.50;6.73;;;16.60;1.00;;;;;;5008585;28;20218;-66
2022/10/16 08:00:20;;;;;;;15.60;5.60;;;16.60;1.00;;;;;;5030871;28;20221;-66
2022/10/16 08:02:46;;;;;;;17.83;5.43;;;16.60;1.00;;;;;;5026580;28;20184;-66
2022/10/16 08:05:12;;;;;;;14.23;4.93;;;16.50;1.00;;;;;;5033618;28;20572;-67
2022/10/16 08:07:38;;;;;;;25.50;6.80;;;16.40;1.00;;;;;;5022630;28;20179;-65
2022/10/16 08:10:04;;;;;;;125.47;13.43;;;16.50;1.00;;;;;;5032231;28;20202;-67
2022/10/16 08:12:29;;;;;;;20.53;5.70;;;16.40;1.00;;;;;;5025290;28;20179;-66
2022/10/16 08:14:55;;;;;;;16.03;5.90;;;16.40;1.00;;;;;;5027052;28;20405;-67
2022/10/16 08:17:21;;;;;;;11.60;5.20;;;16.40;1.00;;;;;;5023026;28;20182;-67
2022/10/16 08:19:47;;;;;;;14.37;5.47;;;16.30;1.00;;;;;;5029855;28;20347;-65
2022/10/16 08:22:13;;;;;;;18.67;6.60;;;16.30;1.00;;;;;;5029664;28;20237;-66
2022/10/16 08:24:39;;;;;;;14.93;5.07;;;16.30;1.00;;;;;;5023340;28;20790;-67
2022/10/16 08:27:05;;;;;;;30.23;6.40;;;16.30;1.00;;;;;;5026469;28;20505;-67
2022/10/16 08:29:31;;;;;;;50.30;7.27;;;16.40;1.00;;;;;;5027799;28;20239;-66
2022/10/16 08:31:57;;;;;;;28.00;7.60;;;16.50;1.00;;;;;;5024854;28;20441;-66
2022/10/16 08:34:22;;;;;;;11.40;4.77;;;16.50;1.00;;;;;;5009560;28;20228;-66
2022/10/16 08:36:48;;;;;;;7.50;4.67;;;16.50;1.00;;;;;;5026100;28;20184;-67
2022/10/16 08:39:14;;;;;;;10.93;5.23;;;16.50;1.00;;;;;;5030983;28;20299;-67
2022/10/16 08:41:42;;;;;;;28.03;5.73;;;16.50;1.00;;;;;;5043543;28;20214;-67
2022/10/16 08:44:24;;;;;;;20.47;9.00;;;16.50;1.00;;;;;;5042468;28;20176;-66
2022/10/16 08:47:19;;;;;;;14.60;8.60;;;16.60;1.00;;;;;;5027072;28;20399;-66
2022/10/16 08:50:13;;;;;;;31.17;8.00;;;16.60;1.00;;;;;;5027674;28;20418;-68
2022/10/16 08:52:44;;;;;;;28.83;6.07;;;16.70;1.00;;;;;;5024424;28;20780;-68
2022/10/16 08:55:46;;;;;;;28.50;7.37;;;16.70;1.00;;;;;;5027690;28;20402;-66
2022/10/16 08:58:21;;;;;;;19.67;5.97;;;16.70;1.00;;;;;;5008467;28;20414;-67
2022/10/16 09:00:53;;;;;;;8.83;4.60;;;16.70;1.00;;;;;;5010433;28;20565;-67
2022/10/16 09:03:19;;;;;;;27.23;6.57;;;16.70;1.00;;;;;;5012216;28;20833;-67
2022/10/16 09:06:06;;;;;;;12.17;5.67;;;16.70;1.00;;;;;;5040974;28;20489;-67
2022/10/16 09:08:37;;;;;;;5.30;4.70;;;16.70;1.00;;;;;;5051907;28;20190;-67
2022/10/16 09:11:11;;;;;;;9.40;5.07;;;16.80;1.00;;;;;;5047400;28;20449;-67
2022/10/16 09:14:03;;;;;;;26.53;8.07;;;16.80;1.00;;;;;;5031546;28;20414;-67
2022/10/16 09:16:46;;;;;;;10.10;5.50;;;16.80;1.00;;;;;;5030655;28;21048;-66
2022/10/16 09:19:24;;;;;;;16.67;6.70;;;16.90;1.00;;;;;;5031837;28;20540;-67
2022/10/16 09:21:52;;;;;;;25.97;7.10;;;16.90;1.00;;;;;;5035356;28;20472;-67
2022/10/16 09:24:25;;;;;;;89.63;13.80;;;16.90;1.00;;;;;;5051889;28;20409;-67
2022/10/16 09:26:50;;;;;;;20.83;6.30;;;16.90;1.00;;;;;;5033332;28;20421;-67
2022/10/16 09:29:19;;;;;;;62.77;10.13;;;17.00;1.00;;;;;;5031484;28;20450;-65
2022/10/16 09:31:46;;;;;;;34.50;8.37;;;17.00;1.00;;;;;;5029810;28;20176;-67
2022/10/16 09:34:20;;;;;;;25.20;6.43;;;17.00;1.00;;;;;;5031637;28;20442;-66
2022/10/16 09:36:46;;;;;;;37.33;9.70;;;17.10;1.00;;;;;;5031484;28;20484;-67
2022/10/16 09:39:12;;;;;;;52.30;9.00;;;17.20;1.00;;;;;;5031158;28;21087;-67
2022/10/16 09:41:41;;;;;;;33.10;6.60;;;17.20;1.00;;;;;;5030662;28;20465;-68
2022/10/16 09:44:22;;;;;;;5.60;4.70;;;17.30;1.00;;;;;;5031675;28;20164;-68
2022/10/16 09:46:48;;;;;;;14.83;5.20;;;17.40;1.00;;;;;;5037661;28;20511;-67
2022/10/16 09:49:25;;;;;;;5.53;4.20;;;17.40;1.00;;;;;;5050193;28;20457;-66
2022/10/16 09:52:03;;;;;;;9.30;4.93;;;17.40;1.00;;;;;;5028840;28;20193;-67
2022/10/16 09:54:29;;;;;;;41.30;8.17;;;17.50;1.00;;;;;;5030758;28;20460;-66
2022/10/16 09:57:05;;;;;;;102.13;14.93;;;17.60;1.00;;;;;;5022795;28;20447;-68
2022/10/16 09:59:32;;;;;;;26.70;6.40;;;17.70;99.90;;;;;;5010919;28;20278;-68
2022/10/16 10:02:03;;;;;;;9.73;4.43;;;17.90;99.90;;;;;;5022434;28;20469;-66
2022/10/16 10:04:40;;;;;;;48.30;8.07;;;18.00;99.90;;;;;;5030829;28;20773;-68
2022/10/16 10:07:16;;;;;;;47.77;7.93;;;18.20;16.80;;;;;;5029922;28;20594;-68
2022/10/16 10:09:44;;;;;;;46.37;8.70;;;18.20;1.00;;;;;;5029836;28;20867;-66
2022/10/16 10:12:28;;;;;;;80.30;10.43;;;18.20;1.00;;;;;;5028313;28;20469;-67
2022/10/16 10:14:58;;;;;;;22.13;6.67;;;18.20;1.00;;;;;;5029813;28;20474;-67
2022/10/16 10:17:28;;;;;;;9.53;4.10;;;18.10;1.00;;;;;;5026354;28;20422;-67
2022/10/16 10:20:02;;;;;;;31.10;6.13;;;18.10;1.00;;;;;;5026049;28;20481;-67
2022/10/16 10:22:42;;;;;;;17.60;4.27;;;18.20;1.00;;;;;;5037179;28;20470;-66
2022/10/16 10:25:16;;;;;;;14.90;4.20;;;18.20;1.00;;;;;;5041329;28;20426;-66
2022/10/16 10:27:53;;;;;;;25.20;5.30;;;18.20;1.00;;;;;;5037969;28;20421;-66
2022/10/16 10:30:44;;;;;;;27.30;5.30;;;18.30;1.00;;;;;;5023367;28;20469;-66
2022/10/16 10:33:33;;;;;;;36.27;6.80;;;18.30;1.00;;;;;;5028547;28;20553;-66
2022/10/16 10:36:27;;;;;;;100.97;12.03;;;18.30;99.90;;;;;;5028748;28;20426;-66
2022/10/16 10:39:00;;;;;;;188.33;20.10;;;18.40;99.90;;;;;;5028708;28;20449;-67
2022/10/16 10:41:57;;;;;;;71.70;9.30;;;18.40;99.90;;;;;;5028347;28;21249;-65
2022/10/16 10:44:35;;;;;;;26.67;5.03;;;18.40;93.50;;;;;;5028537;28;20418;-66
2022/10/16 10:47:20;;;;;;;16.23;3.70;;;18.50;1.00;;;;;;5028807;28;20426;-65
2022/10/16 10:49:55;;;;;;;18.07;4.90;;;18.70;99.90;;;;;;5039624;28;20449;-65
2022/10/16 10:52:51;;;;;;;17.03;4.03;;;18.60;29.60;;;;;;5037550;28;20435;-65
2022/10/16 10:55:30;;;;;;;13.30;3.93;;;18.70;1.00;;;;;;5037326;28;20607;-66
2022/10/16 10:58:32;;;;;;;11.40;3.77;;;18.80;99.90;;;;;;5034869;28;20447;-66
2022/10/16 11:01:11;;;;;;;18.77;4.00;;;18.70;99.90;;;;;;5034854;28;20559;-67
2022/10/16 11:03:46;;;;;;;27.53;5.00;;;18.70;99.90;;;;;;5038081;28;20432;-66
2022/10/16 11:06:24;;;;;;;16.07;3.90;;;18.60;44.90;;;;;;5042931;28;20428;-66
2022/10/16 11:09:04;;;;;;;9.00;3.00;;;18.60;95.20;;;;;;5033365;28;20450;-65
2022/10/16 11:11:43;;;;;;;28.90;5.47;;;18.60;1.00;;;;;;5027598;28;20465;-66
2022/10/16 11:14:29;;;;;;;19.60;4.67;;;18.60;1.00;;;;;;5033333;28;20620;-66
2022/10/16 11:17:01;;;;;;;4.63;3.33;;;18.50;1.00;;;;;;5028786;28;20504;-65
2022/10/16 11:19:45;;;;;;;5.70;3.10;;;18.60;1.00;;;;;;5029311;28;20480;-68
2022/10/16 11:22:14;;;;;;;7.53;3.47;;;18.60;1.00;;;;;;5027851;28;20458;-67
2022/10/16 11:24:51;;;;;;;9.60;3.43;;;18.70;1.00;;;;;;5028194;28;20414;-67
2022/10/16 11:27:21;;;;;;;23.70;4.90;;;18.80;1.00;;;;;;5028631;28;20421;-67
2022/10/16 11:29:55;;;;;;;32.30;6.50;;;18.80;1.00;;;;;;5028243;28;20462;-67
2022/10/16 11:33:02;;;;;;;73.03;9.03;;;18.90;1.00;;;;;;5017438;28;20745;-65
2022/10/16 11:35:40;;;;;;;33.03;5.17;;;18.90;1.00;;;;;;5031951;28;20781;-65
2022/10/16 11:38:14;;;;;;;30.90;6.63;;;19.00;1.00;;;;;;5027583;28;20422;-68
2022/10/16 11:40:43;;;;;;;28.23;6.70;;;19.10;1.00;;;;;;5026821;28;20428;-65
2022/10/16 11:43:34;;;;;;;22.30;4.80;;;19.20;99.90;;;;;;5008903;28;20454;-66
2022/10/16 11:46:10;;;;;;;20.00;4.80;;;19.40;71.40;;;;;;5027178;28;20551;-66
2022/10/16 11:48:39;;;;;;;10.07;4.20;;;19.50;1.00;;;;;;5004763;28;20426;-66
2022/10/16 11:51:33;;;;;;;8.97;5.40;;;19.60;1.00;;;;;;5026766;28;20418;-66
2022/10/16 11:54:18;;;;;;;35.50;6.10;;;20.00;1.00;;;;;;5026677;28;20449;-66
2022/10/16 11:56:45;;;;;;;40.77;7.27;;;20.30;99.90;;;;;;5027393;28;20501;-66
2022/10/16 11:59:29;;;;;;;23.03;4.40;;;20.50;1.00;;;;;;5027615;28;20807;-66
2022/10/16 12:02:12;;;;;;;8.40;3.93;;;20.70;1.00;;;;;;5026309;28;20458;-66
2022/10/16 12:04:51;;;;;;;30.23;6.33;;;20.90;1.00;;;;;;5027434;28;20422;-66
2022/10/16 12:07:27;;;;;;;27.10;4.80;;;21.00;99.90;;;;;;5021502;28;20571;-66
2022/10/16 12:09:53;;;;;;;7.90;2.87;;;21.00;99.90;;;;;;5027406;28;20432;-65
2022/10/16 12:12:38;;;;;;;69.40;10.23;;;21.00;99.90;;;;;;5025532;28;20422;-66
2022/10/16 12:15:25;;;;;;;23.23;4.70;;;21.10;99.90;;;;;;5025399;28;20251;-66
2022/10/16 12:17:52;;;;;;;39.07;5.90;;;21.10;61.50;;;;;;5038270;28;20454;-65
2022/10/16 12:20:19;;;;;;;2.90;2.27;;;21.10;36.20;;;;;;5003312;28;21004;-66
2022/10/16 12:22:55;;;;;;;9.90;3.27;;;21.20;8.50;;;;;;5027785;28;20461;-66
2022/10/16 12:25:27;;;;;;;4.63;2.57;;;21.30;4.00;;;;;;5021782;28;20424;-68
2022/10/16 12:28:19;;;;;;;21.50;4.40;;;21.30;1.00;;;;;;5026216;28;20418;-67
2022/10/16 12:30:54;;;;;;;17.07;3.20;;;21.30;1.00;;;;;;5026952;28;20421;-67
2022/10/16 12:33:29;;;;;;;18.70;4.80;;;21.40;1.00;;;;;;5023240;28;20429;-67
2022/10/16 12:35:56;;;;;;;20.57;5.23;;;21.40;1.00;;;;;;5031305;28;20425;-67
2022/10/16 12:38:27;;;;;;;29.17;4.47;;;21.50;1.00;;;;;;5031575;28;20417;-67
2022/10/16 12:41:08;;;;;;;9.97;2.60;;;21.50;1.00;;;;;;5030675;28;20445;-67
2022/10/16 12:44:03;;;;;;;9.90;2.80;;;21.40;1.00;;;;;;5030303;28;20422;-67
2022/10/16 12:46:29;;;;;;;17.33;4.10;;;21.50;1.00;;;;;;5024295;28;20421;-67
2022/10/16 12:49:15;;;;;;;22.93;4.17;;;21.50;1.00;;;;;;5030985;28;20434;-67
2022/10/16 12:51:42;;;;;;;5.67;2.40;;;21.50;1.00;;;;;;5031365;28;20218;-67
2022/10/16 12:54:19;;;;;;;21.90;3.73;;;21.50;1.00;;;;;;5029743;28;20468;-67
2022/10/16 12:57:24;;;;;;;13.17;4.20;;;21.40;1.00;;;;;;5030661;28;20449;-67
2022/10/16 12:59:59;;;;;;;4.57;2.90;;;21.30;1.00;;;;;;4996525;28;20528;-68
2022/10/16 13:02:43;;;;;;;35.23;6.90;;;21.30;1.00;;;;;;5024650;28;20536;-67
2022/10/16 13:05:18;;;;;;;6.73;2.80;;;21.40;1.00;;;;;;5029786;28;20545;-68
2022/10/16 13:08:08;;;;;;;13.97;3.93;;;21.50;1.00;;;;;;5030499;28;20418;-68
2022/10/16 13:10:50;;;;;;;13.83;3.20;;;21.50;1.00;;;;;;5030237;28;20412;-68